createdAt,value
2018-05-15T15:24:46.706Z,97206.38
2018-05-15T15:27:14.196Z,97196.14
2018-05-15T15:29:41.750Z,97197.05
2018-05-15T15:32:09.200Z,97200.05
2018-05-15T15:34:36.714Z,97195.86
2018-05-15T15:37:04.212Z,97197.36
2018-05-15T15:39:31.857Z,97202.36
2018-05-15T15:41:59.325Z,97190.94
2018-05-15T15:44:26.792Z,97197.42
2018-05-15T15:46:54.264Z,97197.79
2018-05-15T15:49:22.339Z,97195.30
2018-05-15T15:51:50.876Z,97197.88
2018-05-15T15:54:18.375Z,97201.44
2018-05-15T15:56:46.419Z,97202.16
2018-05-15T15:59:14.327Z,97203.84
2018-05-15T16:01:41.876Z,97210.13
2018-05-15T16:04:09.582Z,97212.31
2018-05-15T16:06:37.112Z,97209.70
2018-05-15T16:09:04.647Z,97201.73
2018-05-15T16:11:32.125Z,97204.55
2018-05-15T16:13:59.639Z,97214.16
2018-05-15T16:16:27.699Z,97210.30
2018-05-15T16:18:55.317Z,97214.89
2018-05-15T16:21:23.064Z,97207.39
2018-05-15T16:23:50.507Z,97210.33
2018-05-15T16:26:19.104Z,97215.00
2018-05-15T16:28:46.586Z,97214.70
2018-05-15T16:31:14.096Z,97212.25
2018-05-15T16:33:41.614Z,97216.48
2018-05-15T16:36:09.105Z,97212.71
2018-05-15T16:38:36.601Z,97226.88
2018-05-15T16:41:04.123Z,97254.45
2018-05-15T16:43:31.617Z,97259.09
2018-05-15T16:45:59.065Z,97253.27
2018-05-15T16:48:26.584Z,97256.64
2018-05-15T16:50:54.085Z,97262.90
2018-05-15T16:53:21.741Z,97257.42
2018-05-15T16:55:49.232Z,97258.38
2018-05-15T16:58:16.765Z,97258.76
2018-05-15T17:00:44.198Z,97257.86
2018-05-15T17:03:11.731Z,97260.88
2018-05-15T17:05:39.154Z,97260.69
2018-05-15T17:08:06.725Z,97265.70
2018-05-15T17:10:34.132Z,97263.42
2018-05-15T17:13:01.639Z,97256.20
2018-05-15T17:15:29.166Z,97254.05
2018-05-15T17:17:56.675Z,97258.00
2018-05-15T17:20:24.243Z,97258.40
2018-05-15T17:22:51.794Z,97261.74
2018-05-15T17:25:19.340Z,97261.17
2018-05-15T17:27:46.911Z,97258.97
2018-05-15T17:30:14.516Z,97257.03
2018-05-15T17:32:42.217Z,97254.48
2018-05-15T17:35:09.659Z,97249.64
2018-05-15T17:37:37.239Z,97250.32
2018-05-15T17:40:04.866Z,97255.09
2018-05-15T17:42:32.403Z,97259.16
2018-05-15T17:45:00.011Z,97265.58
2018-05-15T17:47:27.521Z,97266.86
2018-05-15T17:49:54.927Z,97277.31
2018-05-15T17:52:22.812Z,97296.31
2018-05-15T17:54:50.416Z,97299.14
2018-05-15T17:57:17.950Z,97304.80
2018-05-15T17:59:45.451Z,97321.67
2018-05-15T18:02:13.035Z,97321.28
2018-05-15T18:04:40.638Z,97314.02
2018-05-15T18:07:08.223Z,97315.77
2018-05-15T18:09:35.864Z,97317.28
2018-05-15T18:12:03.487Z,97317.03
2018-05-15T18:14:31.157Z,97325.31
2018-05-15T18:16:58.915Z,97322.25
2018-05-15T18:19:27.356Z,97335.52
2018-05-15T18:21:55.350Z,97336.13
2018-05-15T18:24:22.796Z,97342.62
2018-05-15T18:26:50.269Z,97346.63
2018-05-15T18:29:17.822Z,97345.91
2018-05-15T18:31:45.317Z,97346.03
2018-05-15T18:34:15.821Z,97352.27
2018-05-15T18:36:44.717Z,97356.01
2018-05-15T18:39:12.221Z,97357.49
2018-05-15T18:41:39.767Z,97355.25
2018-05-15T18:44:07.669Z,97358.38
2018-05-15T18:46:35.167Z,97370.12
2018-05-15T18:49:02.651Z,97364.63
2018-05-15T18:54:23.249Z,97368.05
2018-05-15T18:56:50.742Z,97375.59
2018-05-15T18:59:18.246Z,97387.16
2018-05-15T19:01:47.096Z,97384.59
2018-05-15T19:04:14.568Z,97381.05
2018-05-15T19:06:42.127Z,97386.70
2018-05-15T19:09:10.484Z,97388.97
2018-05-15T19:11:38.282Z,97397.20
2018-05-15T19:14:06.570Z,97404.56
2018-05-15T19:16:34.063Z,97402.46
2018-05-15T19:19:02.097Z,97402.53
2018-05-15T19:21:29.760Z,97405.75
2018-05-15T19:23:58.044Z,97407.11
2018-05-15T19:26:25.665Z,97410.52
2018-05-15T19:28:53.163Z,97417.76
2018-05-15T19:31:27.425Z,97425.47
2018-05-15T19:33:55.248Z,97430.22
2018-05-15T19:36:28.359Z,97429.66
2018-05-15T19:39:01.416Z,97436.12
2018-05-15T19:41:28.942Z,97439.74
2018-05-15T19:43:56.532Z,97441.22
2018-05-15T19:46:24.093Z,97436.06
2018-05-15T19:48:57.407Z,97437.02
2018-05-15T19:51:24.883Z,97436.80
2018-05-15T19:53:52.340Z,97440.53
2018-05-15T19:56:19.810Z,97439.17
2018-05-15T19:58:47.865Z,97437.81
2018-05-15T20:01:15.544Z,97446.88
2018-05-15T20:03:43.041Z,97453.66
2018-05-15T20:06:10.580Z,97448.30
2018-05-15T20:08:38.040Z,97438.78
2018-05-15T20:11:05.538Z,97439.23
2018-05-15T20:13:33.016Z,97436.97
2018-05-15T20:16:00.528Z,97441.46
2018-05-15T20:18:28.673Z,97444.49
2018-05-15T20:20:56.186Z,97446.59
2018-05-15T20:23:24.537Z,97451.86
2018-05-15T20:25:52.045Z,97443.65
2018-05-15T20:28:19.540Z,97447.78
2018-05-15T20:30:47.532Z,97448.45
2018-05-15T20:33:15.733Z,97446.42
2018-05-15T20:35:43.237Z,97446.31
2018-05-15T20:38:10.686Z,97446.88
2018-05-15T20:40:38.208Z,97452.48
2018-05-15T20:43:06.368Z,97443.02
2018-05-15T20:45:34.954Z,97453.73
2018-05-15T20:48:02.424Z,97453.87
2018-05-15T20:50:30.065Z,97453.78
2018-05-15T20:52:57.553Z,97450.75
2018-05-15T20:55:25.081Z,97454.09
2018-05-15T20:57:52.564Z,97451.36
2018-05-15T21:00:20.136Z,97460.72
2018-05-15T21:02:47.742Z,97460.52
2018-05-15T21:05:15.492Z,97455.50
2018-05-15T21:07:42.967Z,97454.02
2018-05-15T21:10:10.429Z,97454.19
2018-05-15T21:12:37.916Z,97455.55
2018-05-15T21:15:05.463Z,97454.65
2018-05-15T21:17:33.062Z,97453.61
2018-05-15T21:20:00.622Z,97454.80
2018-05-15T21:22:28.184Z,97459.00
2018-05-15T21:24:55.783Z,97456.91
2018-05-15T21:27:23.411Z,97454.14
2018-05-15T21:29:51.002Z,97453.88
2018-05-15T21:32:18.720Z,97452.47
2018-05-15T21:34:46.214Z,97459.95
2018-05-15T21:37:13.731Z,97454.29
2018-05-15T21:39:41.200Z,97457.61
2018-05-15T21:42:08.660Z,97455.69
2018-05-15T21:44:36.148Z,97454.13
2018-05-15T21:47:04.026Z,97460.03
2018-05-15T21:49:32.768Z,97456.51
2018-05-15T21:52:00.296Z,97456.95
2018-05-15T21:54:27.981Z,97457.36
2018-05-15T21:56:55.460Z,97457.05
2018-05-15T21:59:23.204Z,97453.23
2018-05-15T22:01:50.775Z,97456.70
2018-05-15T22:04:18.391Z,97454.89
2018-05-15T22:06:45.877Z,97457.28
2018-05-15T22:09:13.547Z,97457.84
2018-05-15T22:11:52.760Z,97461.75
2018-05-15T22:14:32.033Z,97456.77
2018-05-15T22:17:11.261Z,97459.69
2018-05-15T22:19:50.568Z,97456.39
2018-05-15T22:22:17.487Z,97453.20
2018-05-15T22:24:44.975Z,97453.22
2018-05-15T22:27:12.474Z,97450.12
2018-05-15T22:29:40.115Z,97445.47
2018-05-15T22:32:07.650Z,97445.55
2018-05-15T22:34:35.392Z,97447.13
2018-05-15T22:37:03.252Z,97447.56
2018-05-15T22:39:30.747Z,97448.27
2018-05-15T22:41:58.296Z,97445.79
2018-05-15T22:44:25.900Z,97446.05
2018-05-15T22:46:53.361Z,97443.73
2018-05-15T22:49:20.833Z,97447.01
2018-05-15T22:51:48.331Z,97448.37
2018-05-15T22:54:15.899Z,97447.94
2018-05-15T22:56:43.419Z,97450.23
2018-05-15T22:59:10.912Z,97449.35
2018-05-15T23:01:38.345Z,97447.41
2018-05-15T23:04:05.822Z,97441.75
2018-05-15T23:06:33.329Z,97435.79
2018-05-15T23:09:00.822Z,97436.59
2018-05-15T23:11:28.290Z,97435.28
2018-05-15T23:13:55.787Z,97443.23
2018-05-15T23:16:23.296Z,97433.63
2018-05-15T23:18:50.766Z,97434.17
2018-05-15T23:21:18.296Z,97429.88
2018-05-15T23:23:45.782Z,97427.31
2018-05-15T23:26:13.451Z,97432.04
2018-05-15T23:28:40.910Z,97431.65
2018-05-15T23:31:08.890Z,97430.48
2018-05-15T23:33:36.645Z,97432.29
2018-05-15T23:36:04.175Z,97433.65
2018-05-15T23:38:31.755Z,97424.77
2018-05-15T23:40:59.310Z,97426.52
2018-05-15T23:43:26.853Z,97424.66
2018-05-15T23:45:54.438Z,97424.81
2018-05-15T23:48:21.912Z,97430.66
2018-05-15T23:50:49.635Z,97428.95
2018-05-15T23:53:17.371Z,97426.52
2018-05-15T23:55:44.880Z,97429.23
2018-05-15T23:58:12.422Z,97426.23
